createdAt,value
2023-04-10T00:02:00.536Z,98313.94
2023-04-10T00:04:28.515Z,98312.53
2023-04-10T00:06:55.482Z,98300.66
2023-04-10T00:09:22.043Z,98310.28
2023-04-10T00:11:48.586Z,98309.34
2023-04-10T00:14:15.061Z,98305.38
2023-04-10T00:16:41.649Z,98298.97
2023-04-10T00:19:08.604Z,98295.13
2023-04-10T00:21:35.048Z,98292.78
2023-04-10T00:24:01.553Z,98297.91
2023-04-10T00:26:28.123Z,98300.47
2023-04-10T00:28:54.568Z,98297.06
2023-04-10T00:31:21.104Z,98290.00
2023-04-10T00:33:47.664Z,98290.00
2023-04-10T00:36:14.272Z,98297.28
2023-04-10T00:38:40.842Z,98293.19
2023-04-10T00:41:07.310Z,98296.84
2023-04-10T00:43:33.817Z,98294.38
2023-04-10T00:46:00.833Z,98298.53
2023-04-10T00:48:27.808Z,98298.34
2023-04-10T00:50:54.364Z,98294.59
2023-04-10T00:53:22.048Z,98291.28
2023-04-10T00:55:49.508Z,98290.84
2023-04-10T00:58:15.991Z,98303.66
2023-04-10T01:00:42.480Z,98298.22
2023-04-10T01:03:09.390Z,98289.34
2023-04-10T01:05:41.921Z,98294.69
2023-04-10T01:08:12.733Z,98281.31
2023-04-10T01:10:47.845Z,98285.72
2023-04-10T01:13:17.407Z,98285.75
2023-04-10T01:15:58.771Z,98281.97
2023-04-10T01:18:31.667Z,98280.81
2023-04-10T01:20:59.294Z,98277.59
2023-04-10T01:23:36.121Z,98281.88
2023-04-10T01:26:07.228Z,98274.47
2023-04-10T01:28:48.207Z,98282.72
2023-04-10T01:31:37.789Z,98277.13
2023-04-10T01:34:07.493Z,98275.47
2023-04-10T01:36:38.031Z,98282.06
2023-04-10T01:39:06.853Z,98273.09
2023-04-10T01:41:34.285Z,98281.44
2023-04-10T01:44:03.914Z,98274.03
2023-04-10T01:46:31.131Z,98280.81
2023-04-10T01:49:00.591Z,98273.50
2023-04-10T01:51:27.865Z,98276.00
2023-04-10T01:53:54.881Z,98274.03
2023-04-10T01:56:25.277Z,98276.63
2023-04-10T01:58:51.875Z,98268.69
2023-04-10T02:01:29.183Z,98280.09
2023-04-10T02:03:58.135Z,98281.34
2023-04-10T02:06:41.237Z,98276.53
2023-04-10T02:09:17.677Z,98285.34
2023-04-10T02:11:55.027Z,98274.00
2023-04-10T02:14:22.277Z,98280.78
2023-04-10T02:16:51.741Z,98270.09
2023-04-10T02:19:19.686Z,98283.59
2023-04-10T02:21:47.129Z,98281.59
2023-04-10T02:24:13.751Z,98279.00
2023-04-10T02:26:52.719Z,98282.09
2023-04-10T02:29:19.472Z,98282.44
2023-04-10T02:31:46.698Z,98275.84
2023-04-10T02:34:14.020Z,98275.19
2023-04-10T02:36:40.680Z,98269.56
2023-04-10T02:39:08.665Z,98278.53
2023-04-10T02:41:44.444Z,98273.00
2023-04-10T02:44:13.128Z,98276.66
2023-04-10T02:46:39.807Z,98280.84
2023-04-10T02:49:06.683Z,98273.78
2023-04-10T02:51:37.080Z,98279.88
2023-04-10T02:54:04.856Z,98275.69
2023-04-10T02:56:36.041Z,98272.25
2023-04-10T02:59:02.608Z,98261.22
2023-04-10T03:01:30.823Z,98273.59
2023-04-10T03:03:58.446Z,98265.59
2023-04-10T03:06:31.435Z,98274.91
2023-04-10T03:08:58.483Z,98268.41
2023-04-10T03:11:27.012Z,98269.78
2023-04-10T03:13:53.990Z,98271.63
2023-04-10T03:16:20.839Z,98273.72
2023-04-10T03:18:47.802Z,98269.00
2023-04-10T03:21:14.406Z,98271.34
2023-04-10T03:23:42.071Z,98272.66
2023-04-10T03:26:08.697Z,98272.59
2023-04-10T03:28:39.556Z,98278.66
2023-04-10T03:31:06.528Z,98280.72
2023-04-10T03:33:35.945Z,98280.19
2023-04-10T03:36:03.787Z,98281.09
2023-04-10T03:38:30.310Z,98281.25
2023-04-10T03:40:56.910Z,98280.16
2023-04-10T03:43:25.560Z,98277.94
2023-04-10T03:45:52.047Z,98284.47
2023-04-10T03:48:18.576Z,98276.22
2023-04-10T03:50:46.721Z,98282.84
2023-04-10T03:53:13.407Z,98275.53
2023-04-10T03:55:41.079Z,98274.19
2023-04-10T03:58:08.215Z,98271.34
2023-04-10T04:00:35.853Z,98284.81
2023-04-10T04:03:20.357Z,98275.47
2023-04-10T04:06:04.253Z,98284.47
2023-04-10T04:08:38.793Z,98288.06
2023-04-10T04:11:40.697Z,98292.50
2023-04-10T04:14:16.361Z,98289.94
2023-04-10T04:17:14.970Z,98286.28
2023-04-10T04:20:01.830Z,98282.53
2023-04-10T04:22:47.125Z,98287.09
2023-04-10T04:25:33.861Z,98285.28
2023-04-10T04:28:18.889Z,98293.53
2023-04-10T04:31:16.254Z,98287.47
2023-04-10T04:34:05.363Z,98294.78
2023-04-10T04:37:02.960Z,98284.81
2023-04-10T04:39:32.100Z,98286.78
2023-04-10T04:42:19.764Z,98285.50
2023-04-10T04:45:01.915Z,98295.56
2023-04-10T04:47:28.424Z,98286.84
2023-04-10T04:50:18.764Z,98298.19
2023-04-10T04:53:00.516Z,98290.97
2023-04-10T04:55:47.153Z,98292.53
2023-04-10T04:58:36.626Z,98295.34
2023-04-10T05:01:29.409Z,98302.91
2023-04-10T05:04:20.684Z,98305.00
2023-04-10T05:07:05.706Z,98301.28
2023-04-10T05:09:51.032Z,98294.44
2023-04-10T05:12:36.187Z,98301.06
2023-04-10T05:15:16.574Z,98304.16
2023-04-10T05:18:03.520Z,98311.81
2023-04-10T05:20:42.673Z,98312.31
2023-04-10T05:23:37.353Z,98309.00
2023-04-10T05:26:28.867Z,98312.59
2023-04-10T05:29:27.660Z,98305.09
2023-04-10T05:32:17.333Z,98315.44
2023-04-10T05:34:58.129Z,98310.03
2023-04-10T05:37:33.316Z,98315.06
2023-04-10T05:40:26.344Z,98319.81
2023-04-10T05:43:21.991Z,98322.28
2023-04-10T05:46:01.492Z,98314.56
2023-04-10T05:48:43.032Z,98326.97
2023-04-10T05:51:35.766Z,98319.59
2023-04-10T05:54:29.294Z,98321.66
2023-04-10T05:57:08.862Z,98317.81
2023-04-10T05:59:47.215Z,98319.59
2023-04-10T06:02:25.938Z,98317.53
2023-04-10T06:04:53.060Z,98318.84
2023-04-10T06:07:20.048Z,98319.09
2023-04-10T06:09:46.506Z,98312.22
2023-04-10T06:12:13.020Z,98311.31
2023-04-10T06:14:40.688Z,98316.50
2023-04-10T06:17:07.693Z,98309.63
2023-04-10T06:19:34.262Z,98306.75
2023-04-10T06:22:00.915Z,98307.38
2023-04-10T06:24:28.486Z,98313.38
2023-04-10T06:26:56.854Z,98316.47
2023-04-10T06:29:24.029Z,98312.63
2023-04-10T06:31:50.665Z,98314.69
2023-04-10T06:34:17.277Z,98318.63
2023-04-10T06:36:53.398Z,98308.97
2023-04-10T06:39:20.462Z,98319.47
2023-04-10T06:41:47.820Z,98314.22
2023-04-10T06:44:27.875Z,98315.75
2023-04-10T06:46:54.530Z,98310.03
2023-04-10T06:49:21.112Z,98314.94
2023-04-10T06:51:48.441Z,98315.09
2023-04-10T06:54:15.009Z,98311.06
2023-04-10T06:56:41.486Z,98307.19
2023-04-10T06:59:07.971Z,98307.28
2023-04-10T07:01:34.528Z,98307.44
2023-04-10T07:04:01.287Z,98305.44
2023-04-10T07:06:28.352Z,98306.88
2023-04-10T07:08:55.085Z,98299.75
2023-04-10T07:11:21.807Z,98299.66
2023-04-10T07:13:48.765Z,98298.72
2023-04-10T07:16:17.024Z,98301.44
2023-04-10T07:18:44.298Z,98301.91
2023-04-10T07:21:13.247Z,98303.84
2023-04-10T07:23:40.057Z,98294.19
2023-04-10T07:26:06.688Z,98302.78
2023-04-10T07:28:33.336Z,98295.13
2023-04-10T07:30:59.912Z,98296.41
2023-04-10T07:33:27.139Z,98287.81
2023-04-10T07:35:53.690Z,98296.81
2023-04-10T07:38:21.044Z,98290.28
2023-04-10T07:40:47.725Z,98293.31
2023-04-10T07:43:14.218Z,98287.03
2023-04-10T07:45:41.047Z,98291.00
2023-04-10T07:48:07.781Z,98283.16
2023-04-10T07:50:34.351Z,98295.97
2023-04-10T07:53:03.552Z,98294.53
2023-04-10T07:55:30.385Z,98292.88
2023-04-10T07:57:56.805Z,98292.75
2023-04-10T08:00:23.352Z,98298.47
2023-04-10T08:02:49.939Z,98294.66
2023-04-10T08:05:16.720Z,98296.03
2023-04-10T08:07:43.354Z,98308.50
2023-04-10T08:10:09.971Z,98307.59
2023-04-10T08:12:36.486Z,98295.84
2023-04-10T08:15:02.990Z,98299.09
2023-04-10T08:17:29.513Z,98299.56
2023-04-10T08:19:56.311Z,98298.44
2023-04-10T08:22:22.886Z,98292.78
2023-04-10T08:24:49.350Z,98299.47
2023-04-10T08:27:16.372Z,98291.53
2023-04-10T08:29:43.256Z,98292.97
2023-04-10T08:32:09.775Z,98294.59
2023-04-10T08:34:36.250Z,98298.22
2023-04-10T08:37:06.384Z,98292.78
2023-04-10T08:39:34.826Z,98296.97
2023-04-10T08:42:01.878Z,98296.03
2023-04-10T08:44:28.502Z,98298.28
2023-04-10T08:46:57.759Z,98298.34
2023-04-10T08:49:36.488Z,98292.53
2023-04-10T08:52:05.811Z,98289.34
2023-04-10T08:54:33.197Z,98285.88
2023-04-10T08:57:01.573Z,98294.94
2023-04-10T08:59:29.857Z,98289.28
2023-04-10T09:01:57.432Z,98291.97
2023-04-10T09:04:24.964Z,98280.28
2023-04-10T09:06:54.448Z,98271.22
2023-04-10T09:09:21.312Z,98268.78
2023-04-10T09:11:56.967Z,98274.22
2023-04-10T09:14:30.623Z,98275.00
2023-04-10T09:17:16.676Z,98270.22
2023-04-10T09:19:44.330Z,98272.06
2023-04-10T09:22:10.920Z,98272.00
2023-04-10T09:24:38.884Z,98270.66
2023-04-10T09:27:06.003Z,98259.38
2023-04-10T09:29:41.405Z,98262.97
2023-04-10T09:32:07.903Z,98262.63
2023-04-10T09:34:34.328Z,98254.97
2023-04-10T09:37:01.707Z,98255.81
2023-04-10T09:39:35.762Z,98255.00
2023-04-10T09:42:02.447Z,98251.63
2023-04-10T09:44:32.744Z,98255.06
2023-04-10T09:47:00.225Z,98255.44
2023-04-10T09:49:26.839Z,98248.16
2023-04-10T09:51:53.513Z,98253.91
2023-04-10T09:54:34.873Z,98252.03
2023-04-10T09:57:01.482Z,98251.44
2023-04-10T09:59:28.072Z,98241.22
2023-04-10T10:01:54.635Z,98238.06
2023-04-10T10:04:21.477Z,98238.22
2023-04-10T10:06:48.215Z,98241.22
2023-04-10T10:09:15.362Z,98242.78
2023-04-10T10:11:41.913Z,98232.06
2023-04-10T10:14:13.176Z,98236.34
2023-04-10T10:16:42.580Z,98229.03
2023-04-10T10:19:24.601Z,98227.28
2023-04-10T10:21:52.157Z,98224.19
2023-04-10T10:24:19.919Z,98232.47
2023-04-10T10:26:47.196Z,98226.00
2023-04-10T10:29:15.591Z,98224.47
2023-04-10T10:31:42.507Z,98228.53
2023-04-10T10:34:09.792Z,98236.50
2023-04-10T10:36:37.025Z,98227.41
2023-04-10T10:39:23.009Z,98228.00
2023-04-10T10:42:02.157Z,98220.84
2023-04-10T10:44:44.073Z,98211.13
2023-04-10T10:47:20.649Z,98216.22
2023-04-10T10:50:05.446Z,98207.75
2023-04-10T10:52:42.654Z,98201.47
2023-04-10T10:55:24.745Z,98208.50
2023-04-10T10:57:52.312Z,98201.56
2023-04-10T11:00:19.545Z,98182.34
2023-04-10T11:02:46.264Z,98190.72
2023-04-10T11:05:32.756Z,98190.69
2023-04-10T11:07:59.256Z,98188.81
2023-04-10T11:10:44.331Z,98183.81
2023-04-10T11:13:18.182Z,98172.47
2023-04-10T11:15:44.824Z,98171.66
2023-04-10T11:18:12.125Z,98176.88
2023-04-10T11:20:57.491Z,98171.94
2023-04-10T11:23:24.120Z,98172.63
2023-04-10T11:25:51.896Z,98163.81
2023-04-10T11:28:33.699Z,98157.16
2023-04-10T11:31:21.730Z,98153.31
2023-04-10T11:33:49.313Z,98150.84
2023-04-10T11:36:19.610Z,98150.31
2023-04-10T11:38:59.989Z,98143.28
2023-04-10T11:41:27.770Z,98143.31
2023-04-10T11:43:54.310Z,98142.16
2023-04-10T11:46:20.997Z,98140.25
2023-04-10T11:48:47.575Z,98141.88
2023-04-10T11:51:14.703Z,98144.94
2023-04-10T11:53:41.526Z,98133.47
2023-04-10T11:56:18.414Z,98125.09
2023-04-10T11:58:45.072Z,98131.84
2023-04-10T12:01:14.423Z,98117.66
2023-04-10T12:03:43.955Z,98124.44
2023-04-10T12:06:11.495Z,98127.69
2023-04-10T12:08:42.047Z,98115.63
2023-04-10T12:11:10.177Z,98121.81
2023-04-10T12:13:37.044Z,98115.41
2023-04-10T12:16:04.851Z,98119.28
2023-04-10T12:18:31.523Z,98109.53
2023-04-10T12:20:59.369Z,98110.84
2023-04-10T12:23:27.015Z,98105.88
2023-04-10T12:25:54.259Z,98093.66
2023-04-10T12:28:21.505Z,98095.22
2023-04-10T12:30:53.990Z,98089.59
2023-04-10T12:33:24.117Z,98086.09
2023-04-10T12:35:52.027Z,98088.19
2023-04-10T12:38:34.740Z,98077.16
2023-04-10T12:41:01.414Z,98070.03
2023-04-10T12:43:32.522Z,98071.16
2023-04-10T12:45:59.392Z,98066.41
2023-04-10T12:48:25.931Z,98072.31
2023-04-10T12:50:52.437Z,98057.56
2023-04-10T12:53:19.060Z,98053.50
2023-04-10T12:56:02.309Z,98062.72
2023-04-10T12:58:30.933Z,98059.66
2023-04-10T13:01:04.896Z,98046.63
2023-04-10T13:03:33.355Z,98058.44
2023-04-10T13:05:59.924Z,98047.44
2023-04-10T13:08:26.600Z,98042.59
2023-04-10T13:10:53.141Z,98050.31
2023-04-10T13:13:19.714Z,98048.22
2023-04-10T13:15:46.218Z,98042.56
2023-04-10T13:18:12.800Z,98029.78
2023-04-10T13:20:40.261Z,98031.75
2023-04-10T13:23:07.612Z,98029.00
2023-04-10T13:25:35.581Z,98026.88
2023-04-10T13:28:02.142Z,98023.84
2023-04-10T13:30:29.128Z,98016.13
2023-04-10T13:32:55.784Z,98023.31
2023-04-10T13:35:22.391Z,98013.56
2023-04-10T13:37:53.023Z,98013.22
2023-04-10T13:40:20.289Z,98005.16
2023-04-10T13:42:47.280Z,98007.28
2023-04-10T13:45:13.948Z,97999.22
2023-04-10T13:47:40.467Z,98002.81
2023-04-10T13:50:07.348Z,97999.09
2023-04-10T13:52:33.815Z,97988.22
2023-04-10T13:55:00.286Z,97985.56
2023-04-10T13:57:26.737Z,97984.88
2023-04-10T13:59:53.535Z,97978.63
2023-04-10T14:02:20.191Z,97985.25
2023-04-10T14:04:47.544Z,97986.41
2023-04-10T14:07:14.021Z,97979.47
2023-04-10T14:09:40.719Z,97978.34
2023-04-10T14:12:07.251Z,97974.16
2023-04-10T14:14:33.878Z,97973.56
2023-04-10T14:17:00.599Z,97968.34
2023-04-10T14:19:27.161Z,97967.75
2023-04-10T14:21:53.585Z,97966.59
2023-04-10T14:24:21.374Z,97964.31
2023-04-10T14:26:47.789Z,97960.25
2023-04-10T14:29:16.186Z,97961.53
2023-04-10T14:31:54.871Z,97958.59
2023-04-10T14:34:24.316Z,97961.50
2023-04-10T14:36:55.554Z,97962.47
2023-04-10T14:39:25.559Z,97966.03
2023-04-10T14:41:52.079Z,97960.47
2023-04-10T14:44:18.538Z,97952.53
2023-04-10T14:46:45.905Z,97948.53
2023-04-10T14:49:13.033Z,97946.75
2023-04-10T14:51:39.568Z,97943.84
2023-04-10T14:54:06.123Z,97941.59
2023-04-10T14:56:32.961Z,97935.59
2023-04-10T14:58:59.380Z,97931.16
2023-04-10T15:01:25.933Z,97933.13
2023-04-10T15:03:53.451Z,97924.41
2023-04-10T15:06:20.392Z,97920.84
2023-04-10T15:08:46.973Z,97927.63
2023-04-10T15:11:13.447Z,97923.59
2023-04-10T15:13:39.939Z,97921.81
2023-04-10T15:16:08.059Z,97924.69
2023-04-10T15:18:34.601Z,97919.25
2023-04-10T15:21:01.030Z,97916.47
2023-04-10T15:23:27.515Z,97906.41
2023-04-10T15:25:54.804Z,97911.97
2023-04-10T15:28:21.330Z,97910.00
2023-04-10T15:30:49.714Z,97918.16
2023-04-10T15:33:16.967Z,97905.19
2023-04-10T15:35:47.749Z,97895.72
2023-04-10T15:38:14.241Z,97898.44
2023-04-10T15:40:40.715Z,97901.63
2023-04-10T15:43:07.218Z,97896.97
2023-04-10T15:45:35.532Z,97899.91
2023-04-10T15:48:04.260Z,97895.72
2023-04-10T15:50:31.076Z,97891.59
2023-04-10T15:52:57.536Z,97885.53
2023-04-10T15:55:23.980Z,97886.47
2023-04-10T15:57:50.507Z,97885.13
2023-04-10T16:00:17.167Z,97881.38
2023-04-10T16:02:43.829Z,97876.59
2023-04-10T16:05:10.781Z,97886.50
2023-04-10T16:07:39.005Z,97882.88
2023-04-10T16:10:06.009Z,97865.94
2023-04-10T16:12:32.501Z,97874.91
2023-04-10T16:14:58.902Z,97867.25
2023-04-10T16:17:25.425Z,97862.22
2023-04-10T16:19:51.898Z,97859.94
2023-04-10T16:22:18.410Z,97859.69
2023-04-10T16:24:44.847Z,97859.28
2023-04-10T16:27:11.347Z,97853.91
2023-04-10T16:29:37.828Z,97856.63
2023-04-10T16:32:04.333Z,97857.66
2023-04-10T16:34:30.921Z,97853.94
2023-04-10T16:36:57.444Z,97849.16
2023-04-10T16:39:23.885Z,97853.25
2023-04-10T16:41:50.309Z,97858.34
2023-04-10T16:44:16.824Z,97850.19
2023-04-10T16:46:43.414Z,97846.00
2023-04-10T16:49:09.871Z,97847.50
2023-04-10T16:51:36.541Z,97848.16
2023-04-10T16:54:03.735Z,97839.38
2023-04-10T16:56:33.267Z,97838.50
2023-04-10T16:58:59.727Z,97834.81
2023-04-10T17:01:26.465Z,97837.66
2023-04-10T17:03:53.517Z,97836.13
2023-04-10T17:06:20.080Z,97839.69
2023-04-10T17:08:46.515Z,97841.38
2023-04-10T17:11:13.165Z,97835.28
2023-04-10T17:13:40.389Z,97843.88
2023-04-10T17:16:07.566Z,97839.59
2023-04-10T17:18:34.062Z,97849.19
2023-04-10T17:21:00.613Z,97840.41
2023-04-10T17:23:27.035Z,97832.13
2023-04-10T17:25:53.583Z,97839.22
2023-04-10T17:28:20.195Z,97845.19
2023-04-10T17:30:48.345Z,97841.47
2023-04-10T17:33:14.861Z,97840.56
2023-04-10T17:35:41.801Z,97844.88
2023-04-10T17:38:08.444Z,97839.34
2023-04-10T17:40:35.125Z,97835.56
2023-04-10T17:43:01.674Z,97838.09
2023-04-10T17:45:28.152Z,97838.09
2023-04-10T17:47:54.743Z,97841.69
2023-04-10T17:50:21.343Z,97833.84
2023-04-10T17:52:47.803Z,97844.22
2023-04-10T17:55:18.408Z,97852.53
2023-04-10T17:57:47.448Z,97854.44
2023-04-10T18:00:20.011Z,97856.38
2023-04-10T18:02:47.918Z,97853.44
2023-04-10T18:05:14.798Z,97857.00
2023-04-10T18:07:41.305Z,97853.66
2023-04-10T18:10:10.592Z,97848.00
2023-04-10T18:12:37.751Z,97849.13
2023-04-10T18:15:04.432Z,97847.75
2023-04-10T18:17:30.936Z,97842.81
2023-04-10T18:19:57.537Z,97838.72
2023-04-10T18:22:24.029Z,97837.50
2023-04-10T18:24:50.576Z,97846.97
2023-04-10T18:27:17.048Z,97839.03
2023-04-10T18:29:43.508Z,97844.28
2023-04-10T18:32:10.003Z,97842.16
2023-04-10T18:34:36.502Z,97838.03
2023-04-10T18:37:02.976Z,97838.75
2023-04-10T18:39:29.442Z,97840.72
2023-04-10T18:41:57.674Z,97843.88
2023-04-10T18:44:24.177Z,97844.16
2023-04-10T18:47:01.236Z,97841.03
2023-04-10T18:49:31.053Z,97846.72
2023-04-10T18:51:57.527Z,97844.47
2023-04-10T18:54:26.934Z,97838.25
2023-04-10T18:56:53.538Z,97845.44
2023-04-10T18:59:20.084Z,97842.50
2023-04-10T19:01:46.712Z,97842.91
2023-04-10T19:04:13.310Z,97845.34
2023-04-10T19:06:41.018Z,97852.94
2023-04-10T19:09:10.520Z,97853.66
2023-04-10T19:11:37.523Z,97867.63
2023-04-10T19:14:04.027Z,97863.78
2023-04-10T19:18:57.934Z,97864.41
2023-04-10T19:21:24.506Z,97862.66
2023-04-10T19:23:50.961Z,97864.72
2023-04-10T19:26:19.816Z,97859.50
2023-04-10T19:28:46.446Z,97866.53
2023-04-10T19:31:13.080Z,97873.63
2023-04-10T19:33:39.663Z,97866.03
2023-04-10T19:36:08.162Z,97868.13
2023-04-10T19:38:35.086Z,97866.59
2023-04-10T19:41:01.563Z,97862.53
2023-04-10T19:43:28.100Z,97865.63
2023-04-10T19:45:55.113Z,97864.78
2023-04-10T19:48:21.607Z,97863.16
2023-04-10T19:50:48.129Z,97861.47
2023-04-10T19:53:15.590Z,97858.28
2023-04-10T19:55:44.118Z,97852.00
2023-04-10T19:58:17.023Z,97856.09
2023-04-10T20:00:47.434Z,97860.44
2023-04-10T20:03:16.120Z,97853.59
2023-04-10T20:05:42.898Z,97857.81
2023-04-10T20:08:09.363Z,97853.44
2023-04-10T20:10:35.907Z,97843.97
2023-04-10T20:13:02.349Z,97854.31
2023-04-10T20:15:28.829Z,97845.00
2023-04-10T20:17:55.277Z,97847.69
2023-04-10T20:20:21.916Z,97847.69
2023-04-10T20:22:48.590Z,97845.09
2023-04-10T20:25:15.406Z,97844.22
2023-04-10T20:27:41.868Z,97847.63
2023-04-10T20:30:08.557Z,97834.34
2023-04-10T20:32:35.101Z,97842.09
2023-04-10T20:35:01.564Z,97838.47
2023-04-10T20:37:28.057Z,97838.00
2023-04-10T20:39:54.540Z,97843.41
2023-04-10T20:42:21.058Z,97841.03
2023-04-10T20:44:47.604Z,97845.63
2023-04-10T20:47:14.097Z,97846.41
2023-04-10T20:49:40.716Z,97837.97
2023-04-10T20:52:07.271Z,97843.34
2023-04-10T20:54:33.901Z,97849.31
2023-04-10T20:57:01.697Z,97848.06
2023-04-10T20:59:29.068Z,97849.03
2023-04-10T21:01:55.610Z,97850.78
2023-04-10T21:04:22.319Z,97844.94
2023-04-10T21:06:48.796Z,97837.41
2023-04-10T21:09:15.295Z,97840.34
2023-04-10T21:11:41.819Z,97847.13
2023-04-10T21:14:08.515Z,97842.28
2023-04-10T21:16:37.439Z,97839.34
2023-04-10T21:19:04.007Z,97838.88
2023-04-10T21:21:31.144Z,97844.03
2023-04-10T21:23:57.673Z,97844.03
2023-04-10T21:26:24.139Z,97840.13
2023-04-10T21:28:50.715Z,97844.97
2023-04-10T21:31:17.180Z,97845.22
2023-04-10T21:33:44.226Z,97842.69
2023-04-10T21:36:10.825Z,97845.47
2023-04-10T21:38:37.433Z,97841.09
2023-04-10T21:41:04.107Z,97841.09
2023-04-10T21:43:30.643Z,97829.66
2023-04-10T21:45:57.089Z,97832.09
2023-04-10T21:48:24.743Z,97830.66
2023-04-10T21:50:52.784Z,97825.75
2023-04-10T21:53:20.340Z,97824.66
2023-04-10T21:55:47.213Z,97817.44
2023-04-10T21:58:13.666Z,97811.59
2023-04-10T22:00:41.497Z,97803.16
2023-04-10T22:03:09.699Z,97804.06
2023-04-10T22:05:36.386Z,97801.59
2023-04-10T22:08:02.820Z,97800.41
2023-04-10T22:10:29.256Z,97803.50
2023-04-10T22:12:55.811Z,97806.94
2023-04-10T22:15:22.522Z,97802.72
2023-04-10T22:17:49.104Z,97803.06
2023-04-10T22:20:16.094Z,97800.66
2023-04-10T22:22:42.541Z,97796.31
2023-04-10T22:25:09.229Z,97790.69
2023-04-10T22:27:35.701Z,97788.75
2023-04-10T22:30:03.941Z,97785.09
2023-04-10T22:32:31.630Z,97782.94
2023-04-10T22:34:59.021Z,97783.13
2023-04-10T22:37:25.899Z,97786.00
2023-04-10T22:39:52.431Z,97789.19
2023-04-10T22:42:18.922Z,97793.56
2023-04-10T22:44:45.568Z,97788.16
2023-04-10T22:47:13.861Z,97789.75
2023-04-10T22:49:40.612Z,97797.09
2023-04-10T22:52:07.083Z,97792.09
2023-04-10T22:54:33.547Z,97791.25
2023-04-10T22:57:00.274Z,97790.13
2023-04-10T22:59:26.727Z,97795.81
2023-04-10T23:01:53.229Z,97794.00
2023-04-10T23:04:19.862Z,97796.16
2023-04-10T23:06:46.610Z,97791.22
2023-04-10T23:09:13.111Z,97787.59
2023-04-10T23:11:39.584Z,97797.03
2023-04-10T23:14:06.097Z,97791.22
2023-04-10T23:16:32.577Z,97773.50
2023-04-10T23:18:59.064Z,97775.56
2023-04-10T23:21:25.600Z,97781.72
2023-04-10T23:23:52.047Z,97780.13
2023-04-10T23:26:19.393Z,97770.34
2023-04-10T23:28:45.939Z,97768.84
2023-04-10T23:31:12.539Z,97770.47
2023-04-10T23:33:39.010Z,97769.09
2023-04-10T23:36:05.969Z,97764.41
2023-04-10T23:38:32.528Z,97759.66
2023-04-10T23:40:59.000Z,97759.94
2023-04-10T23:43:25.759Z,97755.13
2023-04-10T23:45:52.202Z,97756.50
2023-04-10T23:48:18.712Z,97746.28
2023-04-10T23:50:45.192Z,97748.44
2023-04-10T23:53:13.988Z,97750.81
2023-04-10T23:55:41.476Z,97745.78
2023-04-10T23:58:08.052Z,97743.31
